Ludlow, Massachusetts
Current Conditions -  °F | °C
As of 10:58 AM on Friday 19 Dec 2014 (Local Time) from KCEF Reporting Station
Overcast Overcast  
Wind Chill: 26°   Ceiling: 2900
Heat Index: 34°   Visibility: 10mi
Dew Point: 22°   Wind: 10mph
Humidity: 62%   Direction: 320°NW
Pressure: 29.98"   Gusts: NA
Location:  42.16°N, 72.48°W
Report Text: KCEF 191558Z AUTO 32009KT 10SM OVC029 01/M05 A2998 RMK AO2 SLP161 T00101055
Loading
Personal Weather Stations






























Interactive Weather Map New forecast layout! Learn more

10-Day Weather Forecast

Advertisements
Track Severe Weather on mobile